createdAt,value
2022-10-18T00:01:05.880Z,94.43
2022-10-18T00:03:33.920Z,94.36
2022-10-18T00:06:01.945Z,94.49
2022-10-18T00:08:32.448Z,97.17
2022-10-18T00:10:59.747Z,94.91
2022-10-18T00:13:27.164Z,94.28
2022-10-18T00:15:58.411Z,94.57
2022-10-18T00:18:26.219Z,94.78
2022-10-18T00:21:06.481Z,94.37
2022-10-18T00:23:35.425Z,93.85
2022-10-18T00:26:06.966Z,94.10
2022-10-18T00:28:37.061Z,94.74
2022-10-18T00:31:12.680Z,94.66
2022-10-18T00:33:40.477Z,94.12
2022-10-18T00:36:07.918Z,94.84
2022-10-18T00:38:35.618Z,98.15
2022-10-18T00:41:07.314Z,96.31
2022-10-18T00:43:52.462Z,95.76
2022-10-18T00:46:19.982Z,96.15
2022-10-18T00:48:48.036Z,94.75
2022-10-18T00:51:18.367Z,94.83
2022-10-18T00:53:46.323Z,94.81
2022-10-18T00:56:20.378Z,95.09
2022-10-18T00:58:51.863Z,94.94
2022-10-18T01:01:20.617Z,95.15
2022-10-18T01:03:51.254Z,94.97
2022-10-18T01:06:18.559Z,95.06
2022-10-18T01:09:04.255Z,97.48
2022-10-18T01:11:51.037Z,94.98
2022-10-18T01:14:37.907Z,95.65
2022-10-18T01:17:27.239Z,94.97
2022-10-18T01:20:18.681Z,95.42
2022-10-18T01:22:56.806Z,95.02
2022-10-18T01:25:29.824Z,94.75
2022-10-18T01:28:09.302Z,94.72
2022-10-18T01:30:38.706Z,95.11
2022-10-18T01:33:29.193Z,94.13
2022-10-18T01:36:21.281Z,94.44
2022-10-18T01:38:53.114Z,94.63
2022-10-18T01:41:27.068Z,95.16
2022-10-18T01:43:59.663Z,94.73
2022-10-18T01:46:29.125Z,94.82
2022-10-18T01:48:57.037Z,96.25
2022-10-18T01:51:31.902Z,95.76
2022-10-18T01:53:59.111Z,94.76
2022-10-18T01:56:51.967Z,94.70
2022-10-18T01:59:53.470Z,96.38
2022-10-18T02:02:26.991Z,95.65
2022-10-18T02:05:21.090Z,95.57
2022-10-18T02:08:05.617Z,95.25
2022-10-18T02:10:51.098Z,94.53
2022-10-18T02:13:21.547Z,94.64
2022-10-18T02:15:54.744Z,94.67
2022-10-18T02:18:29.050Z,95.22
2022-10-18T02:21:00.129Z,95.36
2022-10-18T02:23:27.754Z,94.29
2022-10-18T02:25:55.405Z,94.90
2022-10-18T02:31:15.737Z,95.37
2022-10-18T02:34:06.362Z,94.59
2022-10-18T02:36:40.565Z,94.69
2022-10-18T02:39:18.337Z,95.22
2022-10-18T02:41:45.811Z,94.60
2022-10-18T02:44:13.201Z,94.06
2022-10-18T02:46:40.700Z,94.26
2022-10-18T02:49:10.475Z,93.82
2022-10-18T02:51:37.784Z,93.95
2022-10-18T02:54:05.492Z,93.21
2022-10-18T02:56:33.001Z,93.69
2022-10-18T02:59:00.590Z,93.78
2022-10-18T03:01:28.032Z,94.20
2022-10-18T03:03:55.438Z,93.44
2022-10-18T03:06:22.837Z,93.91
2022-10-18T03:08:50.310Z,93.88
2022-10-18T03:11:17.635Z,94.82
2022-10-18T03:13:45.347Z,94.37
2022-10-18T03:16:12.827Z,94.04
2022-10-18T03:18:40.145Z,94.19
2022-10-18T03:21:08.114Z,94.04
2022-10-18T03:23:35.961Z,93.05
2022-10-18T03:26:04.331Z,93.35
2022-10-18T03:28:31.709Z,93.43
2022-10-18T03:31:03.591Z,95.03
2022-10-18T03:33:32.631Z,94.73
2022-10-18T03:36:00.065Z,82.63
2022-10-18T03:38:27.398Z,79.69
2022-10-18T03:40:54.749Z,71.84
2022-10-18T03:43:22.408Z,71.81
2022-10-18T03:45:49.869Z,81.29
2022-10-18T03:48:17.194Z,86.08
2022-10-18T03:50:44.437Z,89.04
2022-10-18T03:53:20.432Z,91.78
2022-10-18T03:55:54.837Z,92.06
2022-10-18T03:58:22.573Z,91.74
2022-10-18T04:00:57.504Z,92.26
2022-10-18T04:03:25.828Z,97.17
2022-10-18T04:05:56.414Z,79.38
2022-10-18T04:08:24.686Z,71.87
2022-10-18T04:10:52.608Z,82.53
2022-10-18T04:13:23.795Z,83.76
2022-10-18T04:15:51.940Z,86.92
2022-10-18T04:18:19.862Z,88.97
2022-10-18T04:20:47.611Z,90.06
2022-10-18T04:23:16.081Z,90.18
2022-10-18T04:25:46.536Z,93.25
2022-10-18T04:28:13.865Z,93.62
2022-10-18T04:30:50.084Z,96.29
2022-10-18T04:33:17.838Z,96.21
2022-10-18T04:35:46.494Z,96.10
2022-10-18T04:38:13.893Z,95.76
2022-10-18T04:40:44.615Z,95.78
2022-10-18T04:43:14.727Z,95.55
2022-10-18T04:45:47.582Z,94.95
2022-10-18T04:48:16.288Z,97.70
2022-10-18T04:50:43.774Z,97.17
2022-10-18T04:53:11.503Z,96.77
2022-10-18T04:55:59.084Z,94.80
2022-10-18T04:58:26.893Z,97.70
2022-10-18T05:00:57.459Z,98.12
2022-10-18T05:03:30.869Z,97.63
2022-10-18T05:06:08.840Z,97.29
2022-10-18T05:08:44.130Z,98.93
2022-10-18T05:11:14.403Z,99.67
2022-10-18T05:13:41.642Z,99.58
2022-10-18T05:16:08.998Z,98.70
2022-10-18T05:18:36.351Z,99.01
2022-10-18T05:21:06.436Z,99.75
2022-10-18T05:23:36.891Z,98.73
2022-10-18T05:26:06.622Z,98.11
2022-10-18T05:28:40.189Z,98.46
2022-10-18T05:31:11.282Z,99.10
2022-10-18T05:33:42.066Z,98.94
2022-10-18T05:36:10.446Z,99.97
2022-10-18T05:38:42.337Z,100.00
2022-10-18T05:41:11.347Z,100.00
2022-10-18T05:43:41.679Z,100.00
2022-10-18T05:46:15.554Z,99.10
2022-10-18T05:48:50.817Z,98.36
2022-10-18T05:51:20.045Z,99.44
2022-10-18T05:53:55.826Z,99.17
2022-10-18T05:56:28.395Z,99.08
2022-10-18T05:58:59.469Z,99.93
2022-10-18T06:01:33.473Z,100.00
2022-10-18T06:04:04.073Z,100.00
2022-10-18T06:06:31.855Z,99.46
2022-10-18T06:09:02.243Z,98.99
2022-10-18T06:11:30.661Z,100.00
2022-10-18T06:14:01.234Z,99.76
2022-10-18T06:16:34.961Z,99.66
2022-10-18T06:19:04.941Z,99.85
2022-10-18T06:21:34.803Z,100.00
2022-10-18T06:24:04.584Z,100.00
2022-10-18T06:26:31.748Z,99.95
2022-10-18T06:28:59.310Z,98.99
2022-10-18T06:31:27.084Z,98.94
2022-10-18T06:33:56.633Z,97.30
2022-10-18T06:36:24.235Z,97.19
2022-10-18T06:38:52.266Z,97.62
2022-10-18T06:41:22.584Z,96.97
2022-10-18T06:43:53.170Z,96.84
2022-10-18T06:46:23.662Z,96.01
2022-10-18T06:48:53.933Z,94.77
2022-10-18T06:51:21.617Z,94.73
2022-10-18T06:54:06.252Z,94.69
2022-10-18T06:56:40.025Z,93.75
2022-10-18T06:59:07.494Z,93.38
2022-10-18T07:01:34.920Z,92.92
2022-10-18T07:04:05.929Z,93.92
2022-10-18T07:06:36.771Z,93.93
2022-10-18T07:09:07.767Z,94.50
2022-10-18T07:11:38.958Z,95.47
2022-10-18T07:14:12.561Z,94.93
2022-10-18T07:16:42.713Z,95.17
2022-10-18T07:19:16.759Z,94.41
2022-10-18T07:21:44.483Z,94.92
2022-10-18T07:24:15.018Z,93.95
2022-10-18T07:26:45.550Z,92.49
2022-10-18T07:29:19.575Z,93.03
2022-10-18T07:31:47.419Z,94.27
2022-10-18T07:34:18.337Z,94.27
2022-10-18T07:36:49.543Z,94.26
2022-10-18T07:39:17.190Z,93.73
2022-10-18T07:41:44.976Z,97.43
2022-10-18T07:44:17.715Z,94.89
2022-10-18T07:46:45.001Z,93.95
2022-10-18T07:49:12.745Z,94.78
2022-10-18T07:51:45.628Z,95.51
2022-10-18T07:54:16.050Z,94.04
2022-10-18T07:56:44.342Z,93.87
2022-10-18T07:59:16.048Z,93.72
2022-10-18T08:01:49.296Z,93.76
2022-10-18T08:04:16.734Z,93.86
2022-10-18T08:06:48.833Z,93.64
2022-10-18T08:09:25.296Z,93.86
2022-10-18T08:11:55.369Z,88.73
2022-10-18T08:14:25.967Z,90.98
2022-10-18T08:16:53.931Z,86.73
2022-10-18T08:19:29.153Z,83.88
2022-10-18T08:21:56.420Z,86.90
2022-10-18T08:24:24.317Z,80.39
2022-10-18T08:26:51.787Z,84.00
2022-10-18T08:29:23.313Z,82.64
2022-10-18T08:31:55.644Z,83.76
2022-10-18T08:34:26.362Z,83.81
2022-10-18T08:36:56.561Z,82.06
2022-10-18T08:39:24.173Z,79.48
2022-10-18T08:42:22.650Z,80.63
2022-10-18T08:44:52.390Z,76.53
2022-10-18T08:47:34.445Z,75.97
2022-10-18T08:50:12.310Z,75.73
2022-10-18T08:52:55.009Z,79.86
2022-10-18T08:55:27.612Z,78.92
2022-10-18T08:58:03.211Z,75.87
2022-10-18T09:00:37.924Z,75.11
2022-10-18T09:03:30.748Z,78.55
2022-10-18T09:06:13.394Z,78.53
2022-10-18T09:09:00.873Z,77.77
2022-10-18T09:11:46.554Z,78.26
2022-10-18T09:14:42.593Z,77.28
2022-10-18T09:17:47.909Z,78.62
2022-10-18T09:20:28.565Z,78.25
2022-10-18T09:23:12.098Z,76.98
2022-10-18T09:25:49.115Z,77.41
2022-10-18T09:29:00.171Z,77.05
2022-10-18T09:31:52.015Z,76.73
2022-10-18T09:34:29.119Z,75.90
2022-10-18T09:36:57.266Z,75.48
2022-10-18T09:39:51.981Z,75.14
2022-10-18T09:42:54.343Z,73.80
2022-10-18T09:45:35.384Z,72.47
2022-10-18T09:48:07.177Z,73.27
2022-10-18T09:50:40.294Z,72.67
2022-10-18T09:53:10.488Z,73.10
2022-10-18T09:56:03.334Z,72.16
2022-10-18T09:58:41.784Z,71.91
2022-10-18T10:01:12.929Z,70.96
2022-10-18T10:03:41.220Z,69.15
2022-10-18T10:06:12.106Z,66.07
2022-10-18T10:08:56.846Z,66.98
2022-10-18T10:11:40.276Z,66.50
2022-10-18T10:14:11.648Z,65.57
2022-10-18T10:17:05.186Z,64.11
2022-10-18T10:19:37.138Z,64.15
2022-10-18T10:22:13.698Z,62.71
2022-10-18T10:24:48.774Z,63.12
2022-10-18T10:27:32.222Z,58.97
2022-10-18T10:30:06.814Z,58.44
2022-10-18T10:32:50.683Z,59.16
2022-10-18T10:35:54.572Z,58.90
2022-10-18T10:38:30.969Z,56.61
2022-10-18T10:41:02.565Z,57.25
2022-10-18T10:43:39.338Z,59.70
2022-10-18T10:46:13.903Z,60.22
2022-10-18T10:48:50.680Z,60.16
2022-10-18T10:51:35.575Z,57.96
2022-10-18T10:54:07.856Z,58.74
2022-10-18T10:57:05.413Z,59.57
2022-10-18T10:59:46.850Z,58.05
2022-10-18T11:02:21.498Z,59.91
2022-10-18T11:04:54.428Z,56.23
2022-10-18T11:07:35.690Z,55.30
2022-10-18T11:10:11.869Z,52.17
2022-10-18T11:12:45.834Z,52.97
2022-10-18T11:15:23.460Z,48.82
2022-10-18T11:18:16.098Z,48.59
2022-10-18T11:20:49.193Z,48.78
2022-10-18T11:23:18.896Z,47.50
2022-10-18T11:25:55.802Z,48.88
2022-10-18T11:28:46.156Z,49.39
2022-10-18T11:31:46.146Z,49.39
2022-10-18T11:34:38.329Z,45.47
2022-10-18T11:37:29.186Z,45.80
2022-10-18T11:40:20.454Z,44.03
2022-10-18T11:43:00.529Z,46.29
2022-10-18T11:45:59.704Z,44.34
2022-10-18T11:48:33.800Z,42.29
2022-10-18T11:51:34.097Z,42.09
2022-10-18T11:54:20.284Z,44.25
2022-10-18T11:57:07.532Z,46.73
2022-10-18T11:59:51.958Z,44.31
2022-10-18T12:02:48.071Z,45.56
2022-10-18T12:05:23.635Z,45.31
2022-10-18T12:08:01.261Z,48.83
2022-10-18T12:10:45.742Z,44.78
2022-10-18T12:13:29.275Z,44.85
2022-10-18T12:15:56.830Z,44.18
2022-10-18T12:18:25.456Z,43.31
2022-10-18T12:20:58.240Z,42.93
2022-10-18T12:23:42.412Z,43.64
2022-10-18T12:26:11.358Z,42.47
2022-10-18T12:29:18.816Z,52.86
2022-10-18T12:31:50.139Z,47.02
2022-10-18T12:34:23.520Z,49.91
2022-10-18T12:37:00.042Z,42.64
2022-10-18T12:39:43.443Z,42.64
2022-10-18T12:42:30.864Z,48.98
2022-10-18T12:45:05.072Z,41.75
2022-10-18T12:47:33.302Z,41.44
2022-10-18T12:50:05.235Z,42.10
2022-10-18T12:52:32.814Z,41.63
2022-10-18T12:55:16.798Z,42.82
2022-10-18T12:57:57.189Z,43.03
2022-10-18T13:00:30.629Z,43.49
2022-10-18T13:03:09.795Z,45.65
2022-10-18T13:05:53.488Z,41.31
2022-10-18T13:08:27.785Z,41.63
2022-10-18T13:11:09.933Z,40.00
2022-10-18T13:14:01.825Z,41.05
2022-10-18T13:16:53.505Z,40.52
2022-10-18T13:20:24.049Z,41.10
2022-10-18T13:23:01.216Z,40.49
2022-10-18T13:25:45.815Z,39.20
2022-10-18T13:28:16.085Z,57.83
2022-10-18T13:30:52.162Z,45.59
2022-10-18T13:33:49.327Z,42.52
2022-10-18T13:36:24.212Z,41.64
2022-10-18T13:38:57.812Z,43.09
2022-10-18T13:41:51.567Z,40.41
2022-10-18T13:44:31.297Z,46.09
2022-10-18T13:47:02.495Z,44.35
2022-10-18T13:49:39.754Z,41.25
2022-10-18T13:52:44.645Z,46.34
2022-10-18T13:55:34.532Z,46.61
2022-10-18T13:58:19.777Z,41.96
2022-10-18T14:01:02.431Z,39.56
2022-10-18T14:03:55.729Z,39.05
2022-10-18T14:06:21.263Z,42.29
2022-10-18T14:09:26.289Z,40.86
2022-10-18T14:12:26.694Z,42.60
2022-10-18T14:15:16.020Z,42.67
2022-10-18T14:17:53.435Z,48.14
2022-10-18T14:20:29.959Z,52.23
2022-10-18T14:23:16.172Z,49.88
2022-10-18T14:25:43.921Z,48.62
2022-10-18T14:28:19.703Z,41.34
2022-10-18T14:30:55.074Z,47.00
2022-10-18T14:33:32.461Z,41.39
2022-10-18T14:36:22.511Z,49.09
2022-10-18T14:38:58.895Z,50.98
2022-10-18T14:41:31.937Z,45.09
2022-10-18T14:44:24.881Z,52.38
2022-10-18T14:46:55.767Z,51.98
2022-10-18T14:49:23.187Z,47.77
2022-10-18T14:51:54.931Z,53.91
2022-10-18T14:54:27.606Z,53.08
2022-10-18T14:57:00.649Z,49.20
2022-10-18T14:59:31.583Z,47.59
2022-10-18T15:02:01.982Z,49.04
2022-10-18T15:04:29.794Z,48.34
2022-10-18T15:06:57.945Z,49.09
2022-10-18T15:09:26.324Z,50.75
2022-10-18T15:11:54.232Z,52.16
2022-10-18T15:14:22.033Z,51.62
2022-10-18T15:16:55.235Z,68.59
2022-10-18T15:19:30.038Z,57.87
2022-10-18T15:22:31.357Z,51.12
2022-10-18T15:25:22.683Z,52.63
2022-10-18T15:27:55.851Z,61.20
2022-10-18T15:30:25.314Z,57.39
2022-10-18T15:32:55.721Z,54.67
2022-10-18T15:35:26.367Z,54.36
2022-10-18T15:37:56.623Z,55.38
2022-10-18T15:40:23.835Z,55.33
2022-10-18T15:42:56.940Z,57.01
2022-10-18T15:45:24.099Z,57.89
2022-10-18T15:47:58.915Z,57.68
2022-10-18T15:50:38.397Z,58.58
2022-10-18T15:53:52.204Z,58.71
2022-10-18T15:56:35.877Z,59.44
2022-10-18T15:59:26.027Z,61.11
2022-10-18T16:01:56.542Z,63.33
2022-10-18T16:04:29.858Z,58.63
2022-10-18T16:06:58.260Z,59.96
2022-10-18T16:09:28.396Z,61.20
2022-10-18T16:11:57.308Z,63.08
2022-10-18T16:14:26.782Z,63.67
2022-10-18T16:17:06.752Z,63.34
2022-10-18T16:19:36.875Z,65.72
2022-10-18T16:22:10.293Z,65.53
2022-10-18T16:24:40.933Z,66.33
2022-10-18T16:27:14.611Z,66.65
2022-10-18T16:29:47.588Z,67.02
2022-10-18T16:32:14.808Z,68.00
2022-10-18T16:34:47.955Z,66.52
2022-10-18T16:37:20.959Z,68.12
2022-10-18T16:39:51.056Z,68.73
2022-10-18T16:42:18.283Z,68.73
2022-10-18T16:44:45.726Z,69.16
2022-10-18T16:47:12.952Z,69.68
2022-10-18T16:49:40.258Z,68.00
2022-10-18T16:52:08.564Z,68.76
2022-10-18T16:54:37.931Z,70.33
2022-10-18T16:57:09.106Z,69.93
2022-10-18T16:59:40.070Z,71.14
2022-10-18T17:02:11.014Z,71.42
2022-10-18T17:04:44.680Z,70.43
2022-10-18T17:09:54.498Z,71.69
2022-10-18T17:12:28.032Z,71.37
2022-10-18T17:14:58.358Z,72.95
2022-10-18T17:17:26.410Z,70.79
2022-10-18T17:19:54.562Z,71.81
2022-10-18T17:22:25.224Z,73.05
2022-10-18T17:24:52.453Z,71.62
2022-10-18T17:27:34.110Z,73.86
2022-10-18T17:30:12.134Z,65.79
2022-10-18T17:32:40.003Z,69.36
2022-10-18T17:35:07.563Z,71.31
2022-10-18T17:37:35.174Z,73.69
2022-10-18T17:40:06.559Z,74.31
2022-10-18T17:42:34.684Z,73.84
2022-10-18T17:45:06.011Z,75.78
2022-10-18T17:47:33.532Z,75.56
2022-10-18T17:50:01.051Z,77.04
2022-10-18T17:52:29.633Z,76.98
2022-10-18T17:54:59.734Z,77.66
2022-10-18T17:57:26.985Z,79.08
2022-10-18T17:59:54.567Z,78.77
2022-10-18T18:02:22.202Z,78.52
2022-10-18T18:04:49.528Z,78.13
2022-10-18T18:07:16.876Z,78.06
2022-10-18T18:09:44.162Z,80.28
2022-10-18T18:12:11.498Z,79.23
2022-10-18T18:14:38.733Z,80.29
2022-10-18T18:17:05.899Z,81.16
2022-10-18T18:19:33.220Z,80.63
2022-10-18T18:22:00.746Z,81.32
2022-10-18T18:24:28.316Z,81.09
2022-10-18T18:26:55.886Z,81.06
2022-10-18T18:29:25.436Z,81.64
2022-10-18T18:31:53.331Z,79.82
2022-10-18T18:34:20.551Z,81.54
2022-10-18T18:36:48.678Z,83.01
2022-10-18T18:39:24.589Z,80.52
2022-10-18T18:41:52.800Z,80.78
2022-10-18T18:44:20.755Z,81.22
2022-10-18T18:46:48.895Z,79.15
2022-10-18T18:49:16.162Z,80.41
2022-10-18T18:51:43.459Z,80.96
2022-10-18T18:54:12.260Z,80.04
2022-10-18T18:56:41.086Z,78.75
2022-10-18T18:59:08.434Z,77.81
2022-10-18T19:01:40.191Z,75.90
2022-10-18T19:04:09.412Z,74.25
2022-10-18T19:06:39.977Z,75.36
2022-10-18T19:09:20.594Z,76.26
2022-10-18T19:11:50.627Z,76.54
2022-10-18T19:14:18.307Z,77.88
2022-10-18T19:16:48.167Z,77.64
2022-10-18T19:19:18.074Z,77.68
2022-10-18T19:21:46.420Z,78.02
2022-10-18T19:24:14.253Z,78.85
2022-10-18T19:26:45.739Z,79.49
2022-10-18T19:29:21.060Z,79.54
2022-10-18T19:31:49.279Z,80.43
2022-10-18T19:34:19.647Z,81.05
2022-10-18T19:36:48.330Z,81.12
2022-10-18T19:39:25.959Z,80.91
2022-10-18T19:41:55.659Z,81.10
2022-10-18T19:44:24.448Z,81.74
2022-10-18T19:46:52.009Z,81.13
2022-10-18T19:49:22.059Z,82.10
2022-10-18T19:51:49.728Z,81.74
2022-10-18T19:54:17.057Z,84.22
2022-10-18T19:56:44.699Z,82.88
2022-10-18T19:59:15.746Z,83.45
2022-10-18T20:01:44.174Z,83.78
2022-10-18T20:04:12.754Z,83.31
2022-10-18T20:06:40.882Z,82.62
2022-10-18T20:09:14.694Z,83.59
2022-10-18T20:11:45.078Z,83.64
2022-10-18T20:14:12.457Z,84.20
2022-10-18T20:16:39.728Z,83.44
2022-10-18T20:19:08.402Z,83.79
2022-10-18T20:21:36.483Z,85.03
2022-10-18T20:24:05.232Z,85.18
2022-10-18T20:26:33.120Z,84.76
2022-10-18T20:29:02.961Z,84.57
2022-10-18T20:31:32.631Z,84.75
2022-10-18T20:34:02.548Z,85.80
2022-10-18T20:36:31.564Z,85.38
2022-10-18T20:38:59.248Z,85.63
2022-10-18T20:41:29.433Z,85.13
2022-10-18T20:44:02.292Z,86.25
2022-10-18T20:46:31.839Z,85.69
2022-10-18T20:49:02.684Z,85.91
2022-10-18T20:51:33.374Z,86.68
2022-10-18T20:56:34.369Z,87.15
2022-10-18T20:59:01.838Z,87.60
2022-10-18T21:01:34.787Z,87.57
2022-10-18T21:04:04.985Z,88.75
2022-10-18T21:06:34.861Z,88.39
2022-10-18T21:09:05.859Z,88.84
2022-10-18T21:11:38.138Z,89.16
2022-10-18T21:14:12.434Z,88.98
2022-10-18T21:16:41.064Z,89.63
2022-10-18T21:19:12.211Z,88.64
2022-10-18T21:21:41.126Z,88.37
2022-10-18T21:24:08.543Z,89.43
2022-10-18T21:26:36.116Z,88.97
2022-10-18T21:29:04.718Z,88.17
2022-10-18T21:31:37.266Z,89.17
2022-10-18T21:34:15.544Z,90.50
2022-10-18T21:36:44.828Z,90.46
2022-10-18T21:39:15.370Z,89.28
2022-10-18T21:41:42.960Z,89.25
2022-10-18T21:44:11.047Z,90.74
2022-10-18T21:46:39.212Z,91.11
2022-10-18T21:49:07.546Z,90.36
2022-10-18T21:51:35.184Z,89.53
2022-10-18T21:54:02.492Z,90.85
2022-10-18T21:56:34.764Z,89.79
2022-10-18T21:59:02.548Z,90.53
2022-10-18T22:01:38.373Z,91.10
2022-10-18T22:04:08.389Z,91.74
2022-10-18T22:06:39.758Z,90.63
2022-10-18T22:09:08.065Z,90.25
2022-10-18T22:11:43.218Z,90.53
2022-10-18T22:14:10.806Z,90.93
2022-10-18T22:16:38.802Z,90.84
2022-10-18T22:19:07.243Z,91.29
2022-10-18T22:21:34.754Z,92.10
2022-10-18T22:24:06.965Z,92.32
2022-10-18T22:26:37.184Z,91.64
2022-10-18T22:29:13.354Z,91.36
2022-10-18T22:35:25.190Z,92.43
2022-10-18T22:37:54.126Z,92.52
2022-10-18T22:40:21.451Z,92.17
2022-10-18T22:42:48.836Z,92.52
2022-10-18T22:45:16.328Z,93.48
2022-10-18T22:47:44.088Z,94.32
2022-10-18T22:50:17.901Z,95.31
2022-10-18T22:52:51.515Z,94.21
2022-10-18T22:55:21.804Z,93.48
2022-10-18T22:57:55.784Z,93.11
2022-10-18T23:00:26.145Z,92.82
2022-10-18T23:02:59.903Z,94.23
2022-10-18T23:05:27.301Z,93.25
2022-10-18T23:07:54.708Z,92.83
2022-10-18T23:10:22.205Z,92.94
2022-10-18T23:12:49.752Z,92.87
2022-10-18T23:15:17.080Z,95.01
2022-10-18T23:17:44.574Z,93.26
2022-10-18T23:20:17.703Z,92.30
2022-10-18T23:22:45.496Z,92.65
2022-10-18T23:25:13.107Z,94.02
2022-10-18T23:27:40.740Z,92.69
2022-10-18T23:30:09.005Z,92.15
2022-10-18T23:32:41.218Z,92.04
2022-10-18T23:35:08.939Z,94.48
2022-10-18T23:37:36.813Z,92.81
2022-10-18T23:40:08.117Z,92.91
2022-10-18T23:42:35.514Z,93.62
2022-10-18T23:45:02.936Z,96.63
2022-10-18T23:47:30.633Z,94.63
2022-10-18T23:49:59.157Z,92.97
2022-10-18T23:52:26.510Z,92.61
2022-10-18T23:54:54.225Z,94.46
2022-10-18T23:57:21.677Z,93.16
2022-10-18T23:59:49.137Z,93.41
